Vision of The Seas — C6SE8 — position and weather

sailwx.info

Track history (hours):
 
Tides and Currents Weather Stations Pressure Air Temp Water Temp Dewpoint Dewpoint Depression Visibility Wind Speed Wind Dir Waves Ship Positions

Vision of The Seas

Operator: Royal Caribbean Cruises Ltd

Last reported at 2017-Jul-22 06:58 UTC. Time now 2017-Jul-22 12:43 UTC.
Position N 55°48' E 006°44'.

Type: Passenger vessel. MMSI: 311321000.

Date/timePositionNaut miles runAvg speedWind from/ knotsBaromVisibWave heightAir tempDewpointWater temp
2017-Jul-22 06:58N 55°48' E 006°44'817.8
2017-Jul-22 06:31N 55°41' E 006°37'1217.7
2017-Jul-22 05:49N 55°30' E 006°27'717.8
2017-Jul-22 05:26N 55°24' E 006°21'1717.8
2017-Jul-22 04:30N 55°09' E 006°06'7917.6
2017-Jul-22 00:00N 54°00' E 005°00'1517.0 100 / 331014.110.8 17.013.718.0
2017-Jul-21 23:08N 53°45' E 004°58'217.1
2017-Jul-21 23:00N 53°43' E 004°56'816.7
2017-Jul-21 22:31N 53°36' E 004°50'816.6
2017-Jul-21 22:00N 53°29' E 004°44'816.5
2017-Jul-21 21:30N 53°21' E 004°38'816.5
2017-Jul-21 21:00N 53°13' E 004°33'816.4
2017-Jul-21 20:31N 53°06' E 004°27'816.5
2017-Jul-21 20:01N 52°59' E 004°20'816.5
2017-Jul-21 19:31N 52°52' E 004°14'815.8
2017-Jul-21 19:01N 52°44' E 004°11'816.8
2017-Jul-21 18:30N 52°37' E 004°18'815.9
2017-Jul-21 18:01N 52°30' E 004°25'612.4
2017-Jul-21 17:31N 52°28' E 004°34'1 2.4
2017-Jul-21 17:01N 52°28' E 004°36'2 4.4
2017-Jul-21 16:30N 52°28' E 004°40'4 8.8
2017-Jul-21 16:00N 52°26' E 004°46'3 7.0
2017-Jul-21 15:31N 52°25' E 004°52'3 4.7
2017-Jul-21 14:56N 52°23' E 004°55'0 0.0
2017-Jul-21 14:29N 52°23' E 004°55'0 0.0
2017-Jul-21 13:59N 52°23' E 004°55'0 0.0
2017-Jul-21 13:29N 52°23' E 004°55'0 0.0
2017-Jul-21 12:56N 52°23' E 004°55'0 0.0
2017-Jul-21 12:29N 52°23' E 004°55'0 0.0
2017-Jul-21 11:59N 52°23' E 004°55'0 0.0
2017-Jul-21 11:29N 52°23' E 004°55'0 0.0
2017-Jul-21 10:59N 52°23' E 004°55'0 0.0
2017-Jul-21 10:29N 52°23' E 004°55'0 0.0
2017-Jul-21 09:59N 52°23' E 004°55'0 0.0
2017-Jul-21 09:29N 52°23' E 004°55'0 0.0
2017-Jul-21 08:59N 52°23' E 004°55'0 0.0
2017-Jul-21 08:29N 52°23' E 004°55'0 0.0
2017-Jul-21 07:59N 52°23' E 004°55'0 0.0
2017-Jul-21 07:29N 52°23' E 004°55'0 0.0
2017-Jul-21 06:59N 52°23' E 004°55'0 0.0
2017-Jul-21 06:29N 52°23' E 004°55'0 0.0
2017-Jul-21 05:59N 52°23' E 004°55'0 0.0
2017-Jul-21 05:23N 52°23' E 004°55'0 0.0
2017-Jul-21 04:59N 52°23' E 004°55'0 0.0
2017-Jul-21 04:29N 52°23' E 004°55'0 0.0
2017-Jul-21 03:59N 52°23' E 004°55'0 0.1
2017-Jul-21 03:31N 52°23' E 004°55'0 1.0
2017-Jul-21 03:01N 52°23' E 004°54'3 6.6
2017-Jul-21 02:31N 52°25' E 004°50'4 9.0
2017-Jul-21 02:01N 52°26' E 004°43'4 8.0
2017-Jul-21 01:30N 52°28' E 004°37'0 0.9
2017-Jul-21 01:01N 52°28' E 004°36'3 6.9
2017-Jul-21 00:30N 52°28' E 004°31'713.5
2017-Jul-21 00:00N 52°29' E 004°20'816.4
2017-Jul-20 23:30N 52°32' E 004°07'816.2
2017-Jul-20 23:00N 52°40' E 004°04'3415.1
2017-Jul-20 20:44N 53°12' E 004°24'14516.6
2017-Jul-20 12:00N 55°24' E 006°06'11918.4 180 / 171008.1 5.4 17.017.015.0
2017-Jul-20 05:31N 57°06' E 007°57'018.7
2017-Jul-20 05:30N 57°06' E 007°58'4118.7
2017-Jul-20 03:18N 57°34' E 008°53'621.2
2017-Jul-20 03:00N 57°37' E 009°03'1120.8
2017-Jul-20 02:30N 57°42' E 009°21'1120.9
2017-Jul-20 02:00N 57°47' E 009°38'1020.5
2017-Jul-20 01:30N 57°50' E 009°56'1120.7
2017-Jul-20 01:00N 57°51' E 010°16'1021.0
2017-Jul-20 00:30N 57°51' E 010°35'1020.8
2017-Jul-20 00:00N 57°48' E 010°54'332060.1
2017-Jul-20 00:00N 57°42' E 011°54'2552.1 090 / 101017.110.8 16.014.417.0
2017-Jul-19 23:30N 57°40' E 011°07'1121.3
2017-Jul-19 23:01N 57°33' E 011°21'1020.5
2017-Jul-19 22:30N 57°24' E 011°30'1121.6
2017-Jul-19 22:00N 57°13' E 011°37'1121.3
2017-Jul-19 21:30N 57°03' E 011°43'1121.0
2017-Jul-19 20:59N 56°53' E 011°50'1020.8
2017-Jul-19 20:30N 56°43' E 011°56'1020.9
2017-Jul-19 20:00N 56°33' E 011°59'1120.8
2017-Jul-19 19:30N 56°23' E 012°04'1020.4
2017-Jul-19 19:00N 56°15' E 012°15'1121.6
2017-Jul-19 18:31N 56°08' E 012°30'1020.4
2017-Jul-19 18:00N 56°00' E 012°41'1020.2
2017-Jul-19 17:30N 55°50' E 012°45'816.5
2017-Jul-19 17:01N 55°43' E 012°38'1 1.2
2017-Jul-19 16:30N 55°43' E 012°37'0 0.0
2017-Jul-19 16:00N 55°43' E 012°37'0 0.0
2017-Jul-19 15:30N 55°43' E 012°37'0 0.0
2017-Jul-19 15:00N 55°43' E 012°37'0 0.0
2017-Jul-19 14:30N 55°43' E 012°37'0 0.0
2017-Jul-19 14:00N 55°43' E 012°37'0 0.0
2017-Jul-19 13:30N 55°43' E 012°37'0 0.0
2017-Jul-19 13:00N 55°43' E 012°37'0 0.0
2017-Jul-19 12:30N 55°43' E 012°37'0 0.0
2017-Jul-19 12:00N 55°43' E 012°37'0 0.0
2017-Jul-19 11:30N 55°43' E 012°37'0 0.0
2017-Jul-19 11:00N 55°43' E 012°37'0 0.0
2017-Jul-19 10:30N 55°43' E 012°37'0 0.0
2017-Jul-19 10:00N 55°43' E 012°37'0 0.0
2017-Jul-19 09:30N 55°43' E 012°37'0 0.0
2017-Jul-19 09:00N 55°43' E 012°37'510.1
2017-Jul-19 08:31N 55°47' E 012°42'918.4
2017-Jul-19 08:00N 55°56' E 012°39'918.0
2017-Jul-19 07:30N 56°05' E 012°36'816.7
2017-Jul-19 07:01N 56°10' E 012°23'2317.6
2017-Jul-19 05:43N 56°20' E 011°47'7114.4
2017-Jul-19 00:47N 55°13' E 011°06'517.5
2017-Jul-19 00:30N 55°08' E 011°03'917.2
2017-Jul-19 00:00N 54°60' E 011°02'816.5
2017-Jul-18 23:30N 54°53' E 010°54'816.9
2017-Jul-18 23:00N 54°45' E 010°53'816.7
2017-Jul-18 22:30N 54°39' E 011°04'917.8
2017-Jul-18 22:00N 54°35' E 011°17'917.8
2017-Jul-18 21:30N 54°31' E 011°31'917.5
2017-Jul-18 21:01N 54°27' E 011°45'917.3
2017-Jul-18 20:31N 54°26' E 011°59'815.1
2017-Jul-18 20:00N 54°29' E 012°11'917.6
2017-Jul-18 19:30N 54°37' E 012°16'3217.5
2017-Jul-18 17:40N 54°52' E 013°05'417.8
2017-Jul-18 17:27N 54°54' E 013°11'917.7
2017-Jul-18 16:57N 54°57' E 013°25'817.7
2017-Jul-18 16:30N 54°60' E 013°38'917.6
2017-Jul-18 16:00N 55°03' E 013°53'917.2
2017-Jul-18 15:30N 55°06' E 014°07'917.6
2017-Jul-18 15:00N 55°13' E 014°16'1717.3
2017-Jul-18 14:00N 55°26' E 014°35'917.1
2017-Jul-18 13:30N 55°30' E 014°48'816.9
2017-Jul-18 13:00N 55°34' E 015°02'917.1
2017-Jul-18 12:30N 55°38' E 015°15'917.1
2017-Jul-18 12:00N 55°41' E 015°29'917.3
2017-Jul-18 11:30N 55°45' E 015°43'917.3
2017-Jul-18 11:00N 55°50' E 015°56'917.4
2017-Jul-18 10:30N 55°55' E 016°08'917.5
2017-Jul-18 10:00N 55°60' E 016°21'917.4
2017-Jul-18 09:31N 56°05' E 016°34'917.2
2017-Jul-18 09:00N 56°09' E 016°47'917.3
2017-Jul-18 08:30N 56°15' E 016°60'917.6
2017-Jul-18 08:00N 56°22' E 017°07'15419.2
2017-Jul-18 00:00N 58°42' E 019°06'7115.6 280 / 251011.6 5.4 15.011.616.0
2017-Jul-17 23:56N 58°48' E 019°13'920.5
2017-Jul-17 23:30N 58°54' E 019°24'1121.0
2017-Jul-17 23:00N 59°02' E 019°38'1121.1
2017-Jul-17 22:30N 59°10' E 019°53'1020.6
2017-Jul-17 22:01N 59°18' E 020°03'1020.7
2017-Jul-17 21:30N 59°28' E 020°08'1020.7
2017-Jul-17 21:00N 59°37' E 019°57'1121.8
2017-Jul-17 20:30N 59°45' E 019°43'917.4
2017-Jul-17 20:00N 59°46' E 019°26'815.8
2017-Jul-17 19:31N 59°44' E 019°11'816.5
2017-Jul-17 19:01N 59°40' E 018°56'510.0
2017-Jul-17 18:30N 59°37' E 018°49'612.0
2017-Jul-17 18:01N 59°34' E 018°38'510.1
2017-Jul-17 17:30N 59°31' E 018°30'611.1
2017-Jul-17 17:00N 59°26' E 018°24'5 9.9
2017-Jul-17 16:30N 59°22' E 018°27'5 9.3
2017-Jul-17 16:00N 59°22' E 018°18'5 9.6
2017-Jul-17 15:31N 59°21' E 018°09'1 1.5
2017-Jul-17 14:58N 59°21' E 018°07'0 0.0
2017-Jul-17 14:28N 59°21' E 018°07'0 0.0
2017-Jul-17 13:58N 59°21' E 018°07'0 0.0
2017-Jul-17 13:22N 59°21' E 018°07'0 0.0
2017-Jul-17 12:58N 59°21' E 018°07'0 0.0
2017-Jul-17 12:28N 59°21' E 018°07'0 0.0
2017-Jul-17 11:58N 59°21' E 018°07'0 0.0
2017-Jul-17 11:28N 59°21' E 018°07'0 0.0
2017-Jul-17 10:46N 59°21' E 018°07'0 0.0
2017-Jul-17 09:34N 59°21' E 018°07'0 0.0
2017-Jul-17 09:28N 59°21' E 018°07'0 0.0
2017-Jul-17 08:46N 59°21' E 018°07'0 0.0
2017-Jul-17 08:28N 59°21' E 018°07'0 0.0
2017-Jul-17 07:58N 59°21' E 018°07'0 0.0
2017-Jul-17 07:22N 59°21' E 018°07'0 0.0
2017-Jul-17 06:58N 59°21' E 018°07'0 0.0
2017-Jul-17 06:28N 59°21' E 018°07'0 0.0
2017-Jul-17 05:52N 59°21' E 018°07'0 0.0
2017-Jul-17 05:30N 59°21' E 018°07'2 4.0
2017-Jul-17 05:00N 59°20' E 018°11'611.1
2017-Jul-17 04:30N 59°23' E 018°21'3 6.0
2017-Jul-17 04:00N 59°23' E 018°27'4 7.8
2017-Jul-17 03:30N 59°27' E 018°26'510.5
2017-Jul-17 03:00N 59°31' E 018°32'5 9.8
2017-Jul-17 02:30N 59°34' E 018°40'611.8
2017-Jul-17 02:00N 59°37' E 018°50'510.0
2017-Jul-17 01:31N 59°40' E 018°57'816.8
2017-Jul-17 01:01N 59°44' E 019°12'713.8
2017-Jul-17 00:31N 59°47' E 019°25'714.4
2017-Jul-17 00:00N 59°49' E 019°39'714.9
2017-Jul-16 23:30N 59°45' E 019°51'816.1
2017-Jul-16 23:00N 59°39' E 020°02'816.1
2017-Jul-16 22:30N 59°32' E 020°11'815.7
2017-Jul-16 22:00N 59°25' E 020°19'816.3
2017-Jul-16 21:30N 59°24' E 020°35'917.3
2017-Jul-16 21:00N 59°24' E 020°52'918.5
2017-Jul-16 20:30N 59°24' E 021°11'713.4
2017-Jul-16 20:01N 59°24' E 021°23'917.2
2017-Jul-16 19:30N 59°24' E 021°40'816.0
2017-Jul-16 19:00N 59°24' E 021°56'816.2
2017-Jul-16 18:30N 59°25' E 022°12'815.7
2017-Jul-16 18:00N 59°28' E 022°26'815.9
2017-Jul-16 17:30N 59°31' E 022°41'816.1
2017-Jul-16 17:01N 59°34' E 022°56'816.2
2017-Jul-16 16:30N 59°34' E 023°12'917.7
2017-Jul-16 16:00N 59°35' E 023°29'917.7
2017-Jul-16 15:30N 59°32' E 023°46'815.9
2017-Jul-16 15:00N 59°31' E 024°02'815.6
2017-Jul-16 14:30N 59°30' E 024°17'917.3
2017-Jul-16 14:00N 59°30' E 024°34'611.6
2017-Jul-16 13:31N 59°31' E 024°45'4 7.4
2017-Jul-16 13:00N 59°27' E 024°46'0 0.0
2017-Jul-16 12:30N 59°27' E 024°46'0 0.0
2017-Jul-16 12:00N 59°27' E 024°46'0 0.0
2017-Jul-16 11:30N 59°27' E 024°46'0 0.0
2017-Jul-16 10:58N 59°27' E 024°46'0 0.1
2017-Jul-16 10:28N 59°27' E 024°46'0 0.0
2017-Jul-16 10:00N 59°27' E 024°46'0 0.0
2017-Jul-16 09:27N 59°27' E 024°46'0 0.0
2017-Jul-16 09:00N 59°27' E 024°46'0 0.0
2017-Jul-16 08:30N 59°27' E 024°46'0 0.0
2017-Jul-16 08:00N 59°27' E 024°46'0 0.0
2017-Jul-16 07:27N 59°27' E 024°46'0 0.0
2017-Jul-16 07:00N 59°27' E 024°46'0 0.0
2017-Jul-16 06:30N 59°27' E 024°46'0 0.0
2017-Jul-16 06:00N 59°27' E 024°46'0 0.0
2017-Jul-16 05:31N 59°27' E 024°46'0 0.0
2017-Jul-16 05:00N 59°27' E 024°46'0 0.0
2017-Jul-16 04:30N 59°27' E 024°46'0 0.0
2017-Jul-16 04:00N 59°27' E 024°46'1 2.4
2017-Jul-16 03:31N 59°28' E 024°45'816.4
2017-Jul-16 03:01N 59°36' E 024°40'815.7
2017-Jul-16 02:31N 59°44' E 024°41'1019.1
2017-Jul-16 02:00N 59°50' E 024°54'816.3
2017-Jul-16 01:30N 59°52' E 025°10'713.8
2017-Jul-16 01:00N 59°53' E 025°24'815.7
2017-Jul-16 00:30N 59°54' E 025°40'714.2
2017-Jul-16 00:00N 59°56' E 025°53'713.9
2017-Jul-15 23:30N 59°58' E 026°06'917.4
2017-Jul-15 23:01N 59°60' E 026°23'815.2
2017-Jul-15 22:30N 60°01' E 026°38'918.1
2017-Jul-15 22:01N 59°60' E 026°56'917.5
2017-Jul-15 21:31N 60°02' E 027°13'1121.6
2017-Jul-15 21:01N 60°08' E 027°31'816.6
2017-Jul-15 20:31N 60°12' E 027°46'1019.2
2017-Jul-15 20:01N 60°10' E 028°05'918.4
2017-Jul-15 19:30N 60°06' E 028°22'713.8
2017-Jul-15 19:00N 60°03' E 028°34'816.4
2017-Jul-15 18:30N 60°03' E 028°51'917.4
2017-Jul-15 18:00N 60°02' E 029°08'816.3
2017-Jul-15 17:31N 60°02' E 029°25'5 9.9
2017-Jul-15 17:00N 60°01' E 029°34'611.7
2017-Jul-15 16:31N 59°59' E 029°45'611.3
2017-Jul-15 16:01N 59°56' E 029°55'510.2
2017-Jul-15 15:31N 59°56' E 030°05'3 5.8
2017-Jul-15 15:00N 59°57' E 030°11'0 0.0
2017-Jul-15 12:23N 59°57' E 030°11'0 0.1
2017-Jul-15 11:59N 59°57' E 030°11'0 0.0
2017-Jul-15 11:29N 59°57' E 030°11'0 0.0
2017-Jul-15 10:59N 59°57' E 030°11'0 0.0
2017-Jul-15 10:26N 59°57' E 030°11'0 0.0
2017-Jul-15 09:59N 59°57' E 030°11'0 0.0
2017-Jul-15 09:26N 59°57' E 030°11'0 0.0
2017-Jul-15 08:59N 59°57' E 030°11'0 0.0
2017-Jul-15 08:29N 59°57' E 030°11'0 0.0
2017-Jul-15 07:59N 59°57' E 030°11'0 0.0
2017-Jul-15 07:29N 59°57' E 030°11'0 0.0
2017-Jul-15 06:59N 59°57' E 030°11'0 0.0
2017-Jul-15 06:29N 59°57' E 030°11'0 0.0
2017-Jul-15 05:56N 59°57' E 030°11'0 0.0
2017-Jul-15 05:29N 59°57' E 030°11'0 0.0
2017-Jul-15 04:59N 59°57' E 030°11'0 0.0
2017-Jul-15 04:29N 59°57' E 030°11'0 0.0
2017-Jul-15 03:56N 59°57' E 030°11'0 0.0
2017-Jul-15 03:29N 59°57' E 030°11'0 0.0
2017-Jul-15 02:59N 59°57' E 030°11'0 0.0
2017-Jul-15 02:29N 59°57' E 030°11'0 0.0
2017-Jul-15 01:59N 59°57' E 030°11'0 0.0
2017-Jul-15 01:26N 59°57' E 030°11'0 0.0
2017-Jul-15 00:59N 59°57' E 030°11'0 0.0
2017-Jul-15 00:29N 59°57' E 030°11'0 0.0
2017-Jul-14 23:59N 59°57' E 030°11'0 0.0
2017-Jul-14 23:29N 59°57' E 030°11'0 0.0
2017-Jul-14 22:59N 59°57' E 030°11'0 0.0
2017-Jul-14 22:29N 59°57' E 030°11'0 0.0
2017-Jul-14 21:59N 59°57' E 030°11'0 0.0
2017-Jul-14 21:29N 59°57' E 030°11'0 0.0
2017-Jul-14 20:59N 59°57' E 030°11'0 0.0
2017-Jul-14 20:29N 59°57' E 030°11'0 0.0
2017-Jul-14 19:59N 59°57' E 030°11'0 0.0
2017-Jul-14 19:29N 59°57' E 030°11'0 0.0
2017-Jul-14 18:59N 59°57' E 030°11'0 0.0
2017-Jul-14 18:29N 59°57' E 030°11'0 0.0
2017-Jul-14 17:23N 59°57' E 030°11'0 0.1
2017-Jul-14 16:59N 59°57' E 030°11'0 0.0
2017-Jul-14 16:29N 59°57' E 030°11'0 0.0
2017-Jul-14 14:53N 59°57' E 030°11'0 0.0
2017-Jul-14 14:29N 59°57' E 030°11'0 0.0
2017-Jul-14 13:38N 59°57' E 030°11'0 0.2
2017-Jul-14 13:29N 59°57' E 030°11'0 0.0
2017-Jul-14 12:56N 59°57' E 030°11'0 0.0
2017-Jul-14 12:30N 59°57' E 030°11'0 0.0
2017-Jul-14 12:00N 59°57' E 030°11'0 0.0
2017-Jul-14 11:30N 59°57' E 030°11'0 0.0
2017-Jul-14 11:00N 59°57' E 030°11'0 0.0
2017-Jul-14 10:30N 59°57' E 030°11'0 0.0
2017-Jul-14 09:59N 59°57' E 030°11'0 0.0
2017-Jul-14 09:26N 59°57' E 030°11'0 0.0
2017-Jul-14 08:59N 59°57' E 030°11'0 0.0
2017-Jul-14 08:29N 59°57' E 030°11'0 0.0
2017-Jul-14 07:59N 59°57' E 030°11'0 0.0
2017-Jul-14 07:29N 59°57' E 030°11'0 0.0
2017-Jul-14 06:59N 59°57' E 030°11'0 0.0
2017-Jul-14 06:29N 59°57' E 030°11'0 0.0
2017-Jul-14 05:59N 59°57' E 030°11'0 0.1
2017-Jul-14 05:29N 59°57' E 030°11'0 0.0
2017-Jul-14 04:59N 59°57' E 030°11'0 0.1
2017-Jul-14 04:29N 59°57' E 030°11'0 0.1
2017-Jul-14 04:00N 59°57' E 030°11'3 4.6
2017-Jul-14 03:24N 59°56' E 030°06'410.7
2017-Jul-14 03:00N 59°56' E 029°57'612.2
2017-Jul-14 02:30N 59°58' E 029°46'611.8
2017-Jul-14 02:00N 60°01' E 029°35'3 6.1
2017-Jul-14 01:29N 60°01' E 029°29'711.3
2017-Jul-14 00:53N 60°01' E 029°15'514.1
2017-Jul-14 00:31N 60°02' E 029°05'714.5
2017-Jul-14 00:01N 60°02' E 028°50'714.8
2017-Jul-13 23:31N 60°02' E 028°36'714.2
2017-Jul-13 23:01N 60°04' E 028°22'714.5
2017-Jul-13 22:31N 60°08' E 028°10'815.1
2017-Jul-13 22:01N 60°10' E 027°55'713.2
2017-Jul-13 21:31N 60°09' E 027°42'714.6
2017-Jul-13 21:01N 60°06' E 027°29'816.5
2017-Jul-13 20:31N 60°02' E 027°15'713.2
2017-Jul-13 20:01N 59°58' E 027°03'815.7
2017-Jul-13 19:30N 59°59' E 026°48'612.8
2017-Jul-13 19:00N 59°59' E 026°35'714.6
2017-Jul-13 18:30N 59°57' E 026°21'714.6
2017-Jul-13 18:00N 59°55' E 026°07'714.7
2017-Jul-13 17:30N 59°53' E 025°53'714.6
2017-Jul-13 17:00N 59°51' E 025°39'714.7
2017-Jul-13 16:31N 59°51' E 025°24'714.4
2017-Jul-13 16:00N 59°54' E 025°11'714.6
2017-Jul-13 15:31N 59°58' E 024°60'713.1
2017-Jul-13 15:00N 60°04' E 024°53'510.0
2017-Jul-13 14:30N 60°09' E 024°55'0 0.4
2017-Jul-13 13:58N 60°09' E 024°55'0 0.0
2017-Jul-13 13:28N 60°09' E 024°55'0 0.0
2017-Jul-13 12:58N 60°09' E 024°55'0 0.0
2017-Jul-13 12:28N 60°09' E 024°55'0 0.0
2017-Jul-13 11:55N 60°09' E 024°55'0 0.0
2017-Jul-13 11:28N 60°09' E 024°55'0 0.0
2017-Jul-13 10:58N 60°09' E 024°55'0 0.0
2017-Jul-13 10:28N 60°09' E 024°55'0 0.0
2017-Jul-13 09:58N 60°09' E 024°55'0 0.0
2017-Jul-13 09:28N 60°09' E 024°55'0 0.0
2017-Jul-13 08:58N 60°09' E 024°55'0 0.0
2017-Jul-13 08:28N 60°09' E 024°55'0 0.0
2017-Jul-13 07:58N 60°09' E 024°55'0 0.1
2017-Jul-13 07:28N 60°09' E 024°55'1 2.2
2017-Jul-13 07:01N 60°08' E 024°54'714.1
2017-Jul-13 06:31N 60°01' E 024°56'714.7
2017-Jul-13 06:00N 59°54' E 024°55'917.4
2017-Jul-13 05:31N 59°46' E 024°46'816.7
2017-Jul-13 05:00N 59°44' E 024°30'918.5
2017-Jul-13 04:31N 59°42' E 024°12'918.1
2017-Jul-13 04:00N 59°39' E 023°55'918.3
2017-Jul-13 03:31N 59°36' E 023°38'918.2
2017-Jul-13 03:01N 59°33' E 023°21'918.5
2017-Jul-13 02:31N 59°31' E 023°03'918.5
2017-Jul-13 02:01N 59°28' E 022°46'918.7
2017-Jul-13 01:31N 59°24' E 022°30'1020.6
2017-Jul-13 01:01N 59°17' E 022°14'1020.6
2017-Jul-13 00:30N 59°11' E 021°58'1020.8
2017-Jul-13 00:00N 59°03' E 021°46'1020.7
2017-Jul-12 23:30N 58°55' E 021°34'1021.0
2017-Jul-12 23:00N 58°46' E 021°22'1122.6
2017-Jul-12 22:30N 58°36' E 021°10'1020.9
2017-Jul-12 22:00N 58°28' E 020°59'1020.2
2017-Jul-12 21:30N 58°19' E 020°49'1019.3
2017-Jul-12 21:00N 58°11' E 020°39'1121.0
2017-Jul-12 20:30N 58°02' E 020°28'1020.0
2017-Jul-12 20:00N 57°54' E 020°17'13620.5
2017-Jul-12 13:24N 56°17' E 017°23'820.7
2017-Jul-12 13:00N 56°12' E 017°11'1020.8
2017-Jul-12 12:30N 56°06' E 016°56'1020.9
2017-Jul-12 12:00N 56°00' E 016°41'3198.6
2017-Jul-12 12:00N 56°00' E 016°36'816.5 220 / 161010.1 18.014.816.0
2017-Jul-12 11:30N 55°55' E 016°26'1020.7
2017-Jul-12 11:00N 55°49' E 016°10'1020.6
2017-Jul-12 10:30N 55°44' E 015°54'1020.7
2017-Jul-12 10:00N 55°39' E 015°38'1020.6
2017-Jul-12 09:30N 55°34' E 015°22'1020.8
2017-Jul-12 09:00N 55°30' E 015°05'1020.5
2017-Jul-12 08:30N 55°26' E 014°49'1020.4
2017-Jul-12 08:00N 55°20' E 014°34'1020.4
2017-Jul-12 07:30N 55°12' E 014°22'1020.4
2017-Jul-12 07:00N 55°03' E 014°13'  
Track history (hours):
 
Tides and Currents Weather Stations Pressure Air Temp Water Temp Dewpoint Dewpoint Depression Visibility Wind Speed Wind Dir Waves Ship Positions

Vision of The Seas

Operator: Royal Caribbean Cruises Ltd

Last reported at 2017-Jul-22 06:58 UTC. Time now 2017-Jul-22 12:43 UTC.
Position N 55°48' E 006°44'.

Type: Passenger vessel. MMSI: 311321000.

Date/timePositionNaut miles runAvg speedWind from/ knotsBaromVisibWave heightAir tempDewpointWater temp
2017-Jul-22 06:58N 55°48' E 006°44'817.8
2017-Jul-22 06:31N 55°41' E 006°37'1217.7
2017-Jul-22 05:49N 55°30' E 006°27'717.8
2017-Jul-22 05:26N 55°24' E 006°21'1717.8
2017-Jul-22 04:30N 55°09' E 006°06'7917.6
2017-Jul-22 00:00N 54°00' E 005°00'1517.0 100 / 331014.110.8 17.013.718.0
2017-Jul-21 23:08N 53°45' E 004°58'217.1
2017-Jul-21 23:00N 53°43' E 004°56'816.7
2017-Jul-21 22:31N 53°36' E 004°50'816.6
2017-Jul-21 22:00N 53°29' E 004°44'816.5
2017-Jul-21 21:30N 53°21' E 004°38'816.5
2017-Jul-21 21:00N 53°13' E 004°33'816.4
2017-Jul-21 20:31N 53°06' E 004°27'816.5
2017-Jul-21 20:01N 52°59' E 004°20'816.5
2017-Jul-21 19:31N 52°52' E 004°14'815.8
2017-Jul-21 19:01N 52°44' E 004°11'816.8
2017-Jul-21 18:30N 52°37' E 004°18'815.9
2017-Jul-21 18:01N 52°30' E 004°25'612.4
2017-Jul-21 17:31N 52°28' E 004°34'1 2.4
2017-Jul-21 17:01N 52°28' E 004°36'2 4.4
2017-Jul-21 16:30N 52°28' E 004°40'4 8.8
2017-Jul-21 16:00N 52°26' E 004°46'3 7.0
2017-Jul-21 15:31N 52°25' E 004°52'3 4.7
2017-Jul-21 14:56N 52°23' E 004°55'0 0.0
2017-Jul-21 14:29N 52°23' E 004°55'0 0.0
2017-Jul-21 13:59N 52°23' E 004°55'0 0.0
2017-Jul-21 13:29N 52°23' E 004°55'0 0.0
2017-Jul-21 12:56N 52°23' E 004°55'0 0.0
2017-Jul-21 12:29N 52°23' E 004°55'0 0.0
2017-Jul-21 11:59N 52°23' E 004°55'0 0.0
2017-Jul-21 11:29N 52°23' E 004°55'0 0.0
2017-Jul-21 10:59N 52°23' E 004°55'0 0.0
2017-Jul-21 10:29N 52°23' E 004°55'0 0.0
2017-Jul-21 09:59N 52°23' E 004°55'0 0.0
2017-Jul-21 09:29N 52°23' E 004°55'0 0.0
2017-Jul-21 08:59N 52°23' E 004°55'0 0.0
2017-Jul-21 08:29N 52°23' E 004°55'0 0.0
2017-Jul-21 07:59N 52°23' E 004°55'0 0.0
2017-Jul-21 07:29N 52°23' E 004°55'0 0.0
2017-Jul-21 06:59N 52°23' E 004°55'0 0.0
2017-Jul-21 06:29N 52°23' E 004°55'0 0.0
2017-Jul-21 05:59N 52°23' E 004°55'0 0.0
2017-Jul-21 05:23N 52°23' E 004°55'0 0.0
2017-Jul-21 04:59N 52°23' E 004°55'0 0.0
2017-Jul-21 04:29N 52°23' E 004°55'0 0.0
2017-Jul-21 03:59N 52°23' E 004°55'0 0.1
2017-Jul-21 03:31N 52°23' E 004°55'0 1.0
2017-Jul-21 03:01N 52°23' E 004°54'3 6.6
2017-Jul-21 02:31N 52°25' E 004°50'4 9.0
2017-Jul-21 02:01N 52°26' E 004°43'4 8.0
2017-Jul-21 01:30N 52°28' E 004°37'0 0.9
2017-Jul-21 01:01N 52°28' E 004°36'3 6.9
2017-Jul-21 00:30N 52°28' E 004°31'713.5
2017-Jul-21 00:00N 52°29' E 004°20'816.4
2017-Jul-20 23:30N 52°32' E 004°07'816.2
2017-Jul-20 23:00N 52°40' E 004°04'3415.1
2017-Jul-20 20:44N 53°12' E 004°24'14516.6
2017-Jul-20 12:00N 55°24' E 006°06'11918.4 180 / 171008.1 5.4 17.017.015.0
2017-Jul-20 05:31N 57°06' E 007°57'018.7
2017-Jul-20 05:30N 57°06' E 007°58'4118.7
2017-Jul-20 03:18N 57°34' E 008°53'621.2
2017-Jul-20 03:00N 57°37' E 009°03'1120.8
2017-Jul-20 02:30N 57°42' E 009°21'1120.9
2017-Jul-20 02:00N 57°47' E 009°38'1020.5
2017-Jul-20 01:30N 57°50' E 009°56'1120.7
2017-Jul-20 01:00N 57°51' E 010°16'1021.0
2017-Jul-20 00:30N 57°51' E 010°35'1020.8
2017-Jul-20 00:00N 57°48' E 010°54'332060.1
2017-Jul-20 00:00N 57°42' E 011°54'2552.1 090 / 101017.110.8 16.014.417.0
2017-Jul-19 23:30N 57°40' E 011°07'1121.3
2017-Jul-19 23:01N 57°33' E 011°21'1020.5
2017-Jul-19 22:30N 57°24' E 011°30'1121.6
2017-Jul-19 22:00N 57°13' E 011°37'1121.3
2017-Jul-19 21:30N 57°03' E 011°43'1121.0
2017-Jul-19 20:59N 56°53' E 011°50'1020.8
2017-Jul-19 20:30N 56°43' E 011°56'1020.9
2017-Jul-19 20:00N 56°33' E 011°59'1120.8
2017-Jul-19 19:30N 56°23' E 012°04'1020.4
2017-Jul-19 19:00N 56°15' E 012°15'1121.6
2017-Jul-19 18:31N 56°08' E 012°30'1020.4
2017-Jul-19 18:00N 56°00' E 012°41'1020.2
2017-Jul-19 17:30N 55°50' E 012°45'816.5
2017-Jul-19 17:01N 55°43' E 012°38'1 1.2
2017-Jul-19 16:30N 55°43' E 012°37'0 0.0
2017-Jul-19 16:00N 55°43' E 012°37'0 0.0
2017-Jul-19 15:30N 55°43' E 012°37'0 0.0
2017-Jul-19 15:00N 55°43' E 012°37'0 0.0
2017-Jul-19 14:30N 55°43' E 012°37'0 0.0
2017-Jul-19 14:00N 55°43' E 012°37'0 0.0
2017-Jul-19 13:30N 55°43' E 012°37'0 0.0
2017-Jul-19 13:00N 55°43' E 012°37'0 0.0
2017-Jul-19 12:30N 55°43' E 012°37'0 0.0
2017-Jul-19 12:00N 55°43' E 012°37'0 0.0
2017-Jul-19 11:30N 55°43' E 012°37'0 0.0
2017-Jul-19 11:00N 55°43' E 012°37'0 0.0
2017-Jul-19 10:30N 55°43' E 012°37'0 0.0
2017-Jul-19 10:00N 55°43' E 012°37'0 0.0
2017-Jul-19 09:30N 55°43' E 012°37'0 0.0
2017-Jul-19 09:00N 55°43' E 012°37'510.1
2017-Jul-19 08:31N 55°47' E 012°42'918.4
2017-Jul-19 08:00N 55°56' E 012°39'918.0
2017-Jul-19 07:30N 56°05' E 012°36'816.7
2017-Jul-19 07:01N 56°10' E 012°23'2317.6
2017-Jul-19 05:43N 56°20' E 011°47'7114.4
2017-Jul-19 00:47N 55°13' E 011°06'517.5
2017-Jul-19 00:30N 55°08' E 011°03'917.2
2017-Jul-19 00:00N 54°60' E 011°02'816.5
2017-Jul-18 23:30N 54°53' E 010°54'816.9
2017-Jul-18 23:00N 54°45' E 010°53'816.7
2017-Jul-18 22:30N 54°39' E 011°04'917.8
2017-Jul-18 22:00N 54°35' E 011°17'917.8
2017-Jul-18 21:30N 54°31' E 011°31'917.5
2017-Jul-18 21:01N 54°27' E 011°45'917.3
2017-Jul-18 20:31N 54°26' E 011°59'815.1
2017-Jul-18 20:00N 54°29' E 012°11'917.6
2017-Jul-18 19:30N 54°37' E 012°16'3217.5
2017-Jul-18 17:40N 54°52' E 013°05'417.8
2017-Jul-18 17:27N 54°54' E 013°11'917.7
2017-Jul-18 16:57N 54°57' E 013°25'817.7
2017-Jul-18 16:30N 54°60' E 013°38'917.6
2017-Jul-18 16:00N 55°03' E 013°53'917.2
2017-Jul-18 15:30N 55°06' E 014°07'917.6
2017-Jul-18 15:00N 55°13' E 014°16'1717.3
2017-Jul-18 14:00N 55°26' E 014°35'917.1
2017-Jul-18 13:30N 55°30' E 014°48'816.9
2017-Jul-18 13:00N 55°34' E 015°02'917.1
2017-Jul-18 12:30N 55°38' E 015°15'917.1
2017-Jul-18 12:00N 55°41' E 015°29'917.3
2017-Jul-18 11:30N 55°45' E 015°43'917.3
2017-Jul-18 11:00N 55°50' E 015°56'917.4
2017-Jul-18 10:30N 55°55' E 016°08'917.5
2017-Jul-18 10:00N 55°60' E 016°21'917.4
2017-Jul-18 09:31N 56°05' E 016°34'917.2
2017-Jul-18 09:00N 56°09' E 016°47'917.3
2017-Jul-18 08:30N 56°15' E 016°60'917.6
2017-Jul-18 08:00N 56°22' E 017°07'15419.2
2017-Jul-18 00:00N 58°42' E 019°06'7115.6 280 / 251011.6 5.4 15.011.616.0
2017-Jul-17 23:56N 58°48' E 019°13'920.5
2017-Jul-17 23:30N 58°54' E 019°24'1121.0
2017-Jul-17 23:00N 59°02' E 019°38'1121.1
2017-Jul-17 22:30N 59°10' E 019°53'1020.6
2017-Jul-17 22:01N 59°18' E 020°03'1020.7
2017-Jul-17 21:30N 59°28' E 020°08'1020.7
2017-Jul-17 21:00N 59°37' E 019°57'1121.8
2017-Jul-17 20:30N 59°45' E 019°43'917.4
2017-Jul-17 20:00N 59°46' E 019°26'815.8
2017-Jul-17 19:31N 59°44' E 019°11'816.5
2017-Jul-17 19:01N 59°40' E 018°56'510.0
2017-Jul-17 18:30N 59°37' E 018°49'612.0
2017-Jul-17 18:01N 59°34' E 018°38'510.1
2017-Jul-17 17:30N 59°31' E 018°30'611.1
2017-Jul-17 17:00N 59°26' E 018°24'5 9.9
2017-Jul-17 16:30N 59°22' E 018°27'5 9.3
2017-Jul-17 16:00N 59°22' E 018°18'5 9.6
2017-Jul-17 15:31N 59°21' E 018°09'1 1.5
2017-Jul-17 14:58N 59°21' E 018°07'0 0.0
2017-Jul-17 14:28N 59°21' E 018°07'0 0.0
2017-Jul-17 13:58N 59°21' E 018°07'0 0.0
2017-Jul-17 13:22N 59°21' E 018°07'0 0.0
2017-Jul-17 12:58N 59°21' E 018°07'0 0.0
2017-Jul-17 12:28N 59°21' E 018°07'0 0.0
2017-Jul-17 11:58N 59°21' E 018°07'0 0.0
2017-Jul-17 11:28N 59°21' E 018°07'0 0.0
2017-Jul-17 10:46N 59°21' E 018°07'0 0.0
2017-Jul-17 09:34N 59°21' E 018°07'0 0.0
2017-Jul-17 09:28N 59°21' E 018°07'0 0.0
2017-Jul-17 08:46N 59°21' E 018°07'0 0.0
2017-Jul-17 08:28N 59°21' E 018°07'0 0.0
2017-Jul-17 07:58N 59°21' E 018°07'0 0.0
2017-Jul-17 07:22N 59°21' E 018°07'0 0.0
2017-Jul-17 06:58N 59°21' E 018°07'0 0.0
2017-Jul-17 06:28N 59°21' E 018°07'0 0.0
2017-Jul-17 05:52N 59°21' E 018°07'0 0.0
2017-Jul-17 05:30N 59°21' E 018°07'2 4.0
2017-Jul-17 05:00N 59°20' E 018°11'611.1
2017-Jul-17 04:30N 59°23' E 018°21'3 6.0
2017-Jul-17 04:00N 59°23' E 018°27'4 7.8
2017-Jul-17 03:30N 59°27' E 018°26'510.5
2017-Jul-17 03:00N 59°31' E 018°32'5 9.8
2017-Jul-17 02:30N 59°34' E 018°40'611.8
2017-Jul-17 02:00N 59°37' E 018°50'510.0
2017-Jul-17 01:31N 59°40' E 018°57'816.8
2017-Jul-17 01:01N 59°44' E 019°12'713.8
2017-Jul-17 00:31N 59°47' E 019°25'714.4
2017-Jul-17 00:00N 59°49' E 019°39'714.9
2017-Jul-16 23:30N 59°45' E 019°51'816.1
2017-Jul-16 23:00N 59°39' E 020°02'816.1
2017-Jul-16 22:30N 59°32' E 020°11'815.7
2017-Jul-16 22:00N 59°25' E 020°19'816.3
2017-Jul-16 21:30N 59°24' E 020°35'917.3
2017-Jul-16 21:00N 59°24' E 020°52'918.5
2017-Jul-16 20:30N 59°24' E 021°11'713.4
2017-Jul-16 20:01N 59°24' E 021°23'917.2
2017-Jul-16 19:30N 59°24' E 021°40'816.0
2017-Jul-16 19:00N 59°24' E 021°56'816.2
2017-Jul-16 18:30N 59°25' E 022°12'815.7
2017-Jul-16 18:00N 59°28' E 022°26'815.9
2017-Jul-16 17:30N 59°31' E 022°41'816.1
2017-Jul-16 17:01N 59°34' E 022°56'816.2
2017-Jul-16 16:30N 59°34' E 023°12'917.7
2017-Jul-16 16:00N 59°35' E 023°29'917.7
2017-Jul-16 15:30N 59°32' E 023°46'815.9
2017-Jul-16 15:00N 59°31' E 024°02'815.6
2017-Jul-16 14:30N 59°30' E 024°17'917.3
2017-Jul-16 14:00N 59°30' E 024°34'611.6
2017-Jul-16 13:31N 59°31' E 024°45'4 7.4
2017-Jul-16 13:00N 59°27' E 024°46'0 0.0
2017-Jul-16 12:30N 59°27' E 024°46'0 0.0
2017-Jul-16 12:00N 59°27' E 024°46'0 0.0
2017-Jul-16 11:30N 59°27' E 024°46'0 0.0
2017-Jul-16 10:58N 59°27' E 024°46'0 0.1
2017-Jul-16 10:28N 59°27' E 024°46'0 0.0
2017-Jul-16 10:00N 59°27' E 024°46'0 0.0
2017-Jul-16 09:27N 59°27' E 024°46'0 0.0
2017-Jul-16 09:00N 59°27' E 024°46'0 0.0
2017-Jul-16 08:30N 59°27' E 024°46'0 0.0
2017-Jul-16 08:00N 59°27' E 024°46'0 0.0
2017-Jul-16 07:27N 59°27' E 024°46'0 0.0
2017-Jul-16 07:00N 59°27' E 024°46'0 0.0
2017-Jul-16 06:30N 59°27' E 024°46'0 0.0
2017-Jul-16 06:00N 59°27' E 024°46'0 0.0
2017-Jul-16 05:31N 59°27' E 024°46'0 0.0
2017-Jul-16 05:00N 59°27' E 024°46'0 0.0
2017-Jul-16 04:30N 59°27' E 024°46'0 0.0
2017-Jul-16 04:00N 59°27' E 024°46'1 2.4
2017-Jul-16 03:31N 59°28' E 024°45'816.4
2017-Jul-16 03:01N 59°36' E 024°40'815.7
2017-Jul-16 02:31N 59°44' E 024°41'1019.1
2017-Jul-16 02:00N 59°50' E 024°54'816.3
2017-Jul-16 01:30N 59°52' E 025°10'713.8
2017-Jul-16 01:00N 59°53' E 025°24'815.7
2017-Jul-16 00:30N 59°54' E 025°40'714.2
2017-Jul-16 00:00N 59°56' E 025°53'713.9
2017-Jul-15 23:30N 59°58' E 026°06'917.4
2017-Jul-15 23:01N 59°60' E 026°23'815.2
2017-Jul-15 22:30N 60°01' E 026°38'918.1
2017-Jul-15 22:01N 59°60' E 026°56'917.5
2017-Jul-15 21:31N 60°02' E 027°13'1121.6
2017-Jul-15 21:01N 60°08' E 027°31'816.6
2017-Jul-15 20:31N 60°12' E 027°46'1019.2
2017-Jul-15 20:01N 60°10' E 028°05'918.4
2017-Jul-15 19:30N 60°06' E 028°22'713.8
2017-Jul-15 19:00N 60°03' E 028°34'816.4
2017-Jul-15 18:30N 60°03' E 028°51'917.4
2017-Jul-15 18:00N 60°02' E 029°08'816.3
2017-Jul-15 17:31N 60°02' E 029°25'5 9.9
2017-Jul-15 17:00N 60°01' E 029°34'611.7
2017-Jul-15 16:31N 59°59' E 029°45'611.3
2017-Jul-15 16:01N 59°56' E 029°55'510.2
2017-Jul-15 15:31N 59°56' E 030°05'3 5.8
2017-Jul-15 15:00N 59°57' E 030°11'0 0.0
2017-Jul-15 12:23N 59°57' E 030°11'0 0.1
2017-Jul-15 11:59N 59°57' E 030°11'0 0.0
2017-Jul-15 11:29N 59°57' E 030°11'0 0.0
2017-Jul-15 10:59N 59°57' E 030°11'0 0.0
2017-Jul-15 10:26N 59°57' E 030°11'0 0.0
2017-Jul-15 09:59N 59°57' E 030°11'0 0.0
2017-Jul-15 09:26N 59°57' E 030°11'0 0.0
2017-Jul-15 08:59N 59°57' E 030°11'0 0.0
2017-Jul-15 08:29N 59°57' E 030°11'0 0.0
2017-Jul-15 07:59N 59°57' E 030°11'0 0.0
2017-Jul-15 07:29N 59°57' E 030°11'0 0.0
2017-Jul-15 06:59N 59°57' E 030°11'0 0.0
2017-Jul-15 06:29N 59°57' E 030°11'0 0.0
2017-Jul-15 05:56N 59°57' E 030°11'0 0.0
2017-Jul-15 05:29N 59°57' E 030°11'0 0.0
2017-Jul-15 04:59N 59°57' E 030°11'0 0.0
2017-Jul-15 04:29N 59°57' E 030°11'0 0.0
2017-Jul-15 03:56N 59°57' E 030°11'0 0.0
2017-Jul-15 03:29N 59°57' E 030°11'0 0.0
2017-Jul-15 02:59N 59°57' E 030°11'0 0.0
2017-Jul-15 02:29N 59°57' E 030°11'0 0.0
2017-Jul-15 01:59N 59°57' E 030°11'0 0.0
2017-Jul-15 01:26N 59°57' E 030°11'0 0.0
2017-Jul-15 00:59N 59°57' E 030°11'0 0.0
2017-Jul-15 00:29N 59°57' E 030°11'0 0.0
2017-Jul-14 23:59N 59°57' E 030°11'0 0.0
2017-Jul-14 23:29N 59°57' E 030°11'0 0.0
2017-Jul-14 22:59N 59°57' E 030°11'0 0.0
2017-Jul-14 22:29N 59°57' E 030°11'0 0.0
2017-Jul-14 21:59N 59°57' E 030°11'0 0.0
2017-Jul-14 21:29N 59°57' E 030°11'0 0.0
2017-Jul-14 20:59N 59°57' E 030°11'0 0.0
2017-Jul-14 20:29N 59°57' E 030°11'0 0.0
2017-Jul-14 19:59N 59°57' E 030°11'0 0.0
2017-Jul-14 19:29N 59°57' E 030°11'0 0.0
2017-Jul-14 18:59N 59°57' E 030°11'0 0.0
2017-Jul-14 18:29N 59°57' E 030°11'0 0.0
2017-Jul-14 17:23N 59°57' E 030°11'0 0.1
2017-Jul-14 16:59N 59°57' E 030°11'0 0.0
2017-Jul-14 16:29N 59°57' E 030°11'0 0.0
2017-Jul-14 14:53N 59°57' E 030°11'0 0.0
2017-Jul-14 14:29N 59°57' E 030°11'0 0.0
2017-Jul-14 13:38N 59°57' E 030°11'0 0.2
2017-Jul-14 13:29N 59°57' E 030°11'0 0.0
2017-Jul-14 12:56N 59°57' E 030°11'0 0.0
2017-Jul-14 12:30N 59°57' E 030°11'0 0.0
2017-Jul-14 12:00N 59°57' E 030°11'0 0.0
2017-Jul-14 11:30N 59°57' E 030°11'0 0.0
2017-Jul-14 11:00N 59°57' E 030°11'0 0.0
2017-Jul-14 10:30N 59°57' E 030°11'0 0.0
2017-Jul-14 09:59N 59°57' E 030°11'0 0.0
2017-Jul-14 09:26N 59°57' E 030°11'0 0.0
2017-Jul-14 08:59N 59°57' E 030°11'0 0.0
2017-Jul-14 08:29N 59°57' E 030°11'0 0.0
2017-Jul-14 07:59N 59°57' E 030°11'0 0.0
2017-Jul-14 07:29N 59°57' E 030°11'0 0.0
2017-Jul-14 06:59N 59°57' E 030°11'0 0.0
2017-Jul-14 06:29N 59°57' E 030°11'0 0.0
2017-Jul-14 05:59N 59°57' E 030°11'0 0.1
2017-Jul-14 05:29N 59°57' E 030°11'0 0.0
2017-Jul-14 04:59N 59°57' E 030°11'0 0.1
2017-Jul-14 04:29N 59°57' E 030°11'0 0.1
2017-Jul-14 04:00N 59°57' E 030°11'3 4.6
2017-Jul-14 03:24N 59°56' E 030°06'410.7
2017-Jul-14 03:00N 59°56' E 029°57'612.2
2017-Jul-14 02:30N 59°58' E 029°46'611.8
2017-Jul-14 02:00N 60°01' E 029°35'3 6.1
2017-Jul-14 01:29N 60°01' E 029°29'711.3
2017-Jul-14 00:53N 60°01' E 029°15'514.1
2017-Jul-14 00:31N 60°02' E 029°05'714.5
2017-Jul-14 00:01N 60°02' E 028°50'714.8
2017-Jul-13 23:31N 60°02' E 028°36'714.2
2017-Jul-13 23:01N 60°04' E 028°22'714.5
2017-Jul-13 22:31N 60°08' E 028°10'815.1
2017-Jul-13 22:01N 60°10' E 027°55'713.2
2017-Jul-13 21:31N 60°09' E 027°42'714.6
2017-Jul-13 21:01N 60°06' E 027°29'816.5
2017-Jul-13 20:31N 60°02' E 027°15'713.2
2017-Jul-13 20:01N 59°58' E 027°03'815.7
2017-Jul-13 19:30N 59°59' E 026°48'612.8
2017-Jul-13 19:00N 59°59' E 026°35'714.6
2017-Jul-13 18:30N 59°57' E 026°21'714.6
2017-Jul-13 18:00N 59°55' E 026°07'714.7
2017-Jul-13 17:30N 59°53' E 025°53'714.6
2017-Jul-13 17:00N 59°51' E 025°39'714.7
2017-Jul-13 16:31N 59°51' E 025°24'714.4
2017-Jul-13 16:00N 59°54' E 025°11'714.6
2017-Jul-13 15:31N 59°58' E 024°60'713.1
2017-Jul-13 15:00N 60°04' E 024°53'510.0
2017-Jul-13 14:30N 60°09' E 024°55'0 0.4
2017-Jul-13 13:58N 60°09' E 024°55'0 0.0
2017-Jul-13 13:28N 60°09' E 024°55'0 0.0
2017-Jul-13 12:58N 60°09' E 024°55'0 0.0
2017-Jul-13 12:28N 60°09' E 024°55'0 0.0
2017-Jul-13 11:55N 60°09' E 024°55'0 0.0
2017-Jul-13 11:28N 60°09' E 024°55'0 0.0
2017-Jul-13 10:58N 60°09' E 024°55'0 0.0
2017-Jul-13 10:28N 60°09' E 024°55'0 0.0
2017-Jul-13 09:58N 60°09' E 024°55'0 0.0
2017-Jul-13 09:28N 60°09' E 024°55'0 0.0
2017-Jul-13 08:58N 60°09' E 024°55'0 0.0
2017-Jul-13 08:28N 60°09' E 024°55'0 0.0
2017-Jul-13 07:58N 60°09' E 024°55'0 0.1
2017-Jul-13 07:28N 60°09' E 024°55'1 2.2
2017-Jul-13 07:01N 60°08' E 024°54'714.1
2017-Jul-13 06:31N 60°01' E 024°56'714.7
2017-Jul-13 06:00N 59°54' E 024°55'917.4
2017-Jul-13 05:31N 59°46' E 024°46'816.7
2017-Jul-13 05:00N 59°44' E 024°30'918.5
2017-Jul-13 04:31N 59°42' E 024°12'918.1
2017-Jul-13 04:00N 59°39' E 023°55'918.3
2017-Jul-13 03:31N 59°36' E 023°38'918.2
2017-Jul-13 03:01N 59°33' E 023°21'918.5
2017-Jul-13 02:31N 59°31' E 023°03'918.5
2017-Jul-13 02:01N 59°28' E 022°46'918.7
2017-Jul-13 01:31N 59°24' E 022°30'1020.6
2017-Jul-13 01:01N 59°17' E 022°14'1020.6
2017-Jul-13 00:30N 59°11' E 021°58'1020.8
2017-Jul-13 00:00N 59°03' E 021°46'1020.7
2017-Jul-12 23:30N 58°55' E 021°34'1021.0
2017-Jul-12 23:00N 58°46' E 021°22'1122.6
2017-Jul-12 22:30N 58°36' E 021°10'1020.9
2017-Jul-12 22:00N 58°28' E 020°59'1020.2
2017-Jul-12 21:30N 58°19' E 020°49'1019.3
2017-Jul-12 21:00N 58°11' E 020°39'1121.0
2017-Jul-12 20:30N 58°02' E 020°28'1020.0
2017-Jul-12 20:00N 57°54' E 020°17'13620.5
2017-Jul-12 13:24N 56°17' E 017°23'820.7
2017-Jul-12 13:00N 56°12' E 017°11'1020.8
2017-Jul-12 12:30N 56°06' E 016°56'1020.9
2017-Jul-12 12:00N 56°00' E 016°41'3198.6
2017-Jul-12 12:00N 56°00' E 016°36'816.5 220 / 161010.1 18.014.816.0
2017-Jul-12 11:30N 55°55' E 016°26'1020.7
2017-Jul-12 11:00N 55°49' E 016°10'1020.6
2017-Jul-12 10:30N 55°44' E 015°54'1020.7
2017-Jul-12 10:00N 55°39' E 015°38'1020.6
2017-Jul-12 09:30N 55°34' E 015°22'1020.8
2017-Jul-12 09:00N 55°30' E 015°05'1020.5
2017-Jul-12 08:30N 55°26' E 014°49'1020.4
2017-Jul-12 08:00N 55°20' E 014°34'1020.4
2017-Jul-12 07:30N 55°12' E 014°22'1020.4
2017-Jul-12 07:00N 55°03' E 014°13'  

Dump ship's entire track history